Time;durP1;ratioP1;P1;durP2;ratioP2;P2;SDS_P1;SDS_P2;PMS_P1;PMS_P2;Temp;Humidity;BMP_temperature;BMP_pressure;BME280_temperature;BME280_humidity;BME280_pressure;Samples;Min_cycle;Max_cycle;Signal;HPM_P1;HPM_P2
2023/01/15 00:01:00;;;;;;;16.58;15.68;;;;;;;;;;5025108;28;20032;-59
2023/01/15 00:03:27;;;;;;;17.30;16.33;;;;;;;;;;5027053;28;20041;-59
2023/01/15 00:05:52;;;;;;;16.92;15.85;;;;;;;;;;5027018;28;20116;-59
2023/01/15 00:08:17;;;;;;;17.05;16.08;;;;;;;;;;5026048;28;20121;-59
2023/01/15 00:10:43;;;;;;;17.48;16.48;;;;;;;;;;5026091;28;20060;-59
2023/01/15 00:13:08;;;;;;;15.75;14.77;;;;;;;;;;5026257;28;20094;-59
2023/01/15 00:15:34;;;;;;;15.30;14.40;;;;;;;;;;5026533;28;20103;-59
2023/01/15 00:18:00;;;;;;;18.35;17.35;;;;;;;;;;5026788;28;20047;-59
2023/01/15 00:20:25;;;;;;;15.68;14.77;;;;;;;;;;5026643;28;20038;-59
2023/01/15 00:22:51;;;;;;;14.80;14.00;;;;;;;;;;5026887;28;20076;-59
2023/01/15 00:28:01;;;;;;;15.15;14.25;;;;;;;;;;5025431;28;20029;-59
2023/01/15 00:30:26;;;;;;;15.27;14.40;;;;;;;;;;5025068;28;20550;-59
2023/01/15 00:32:51;;;;;;;14.93;14.13;;;;;;;;;;5024997;28;20037;-59
2023/01/15 00:35:19;;;;;;;16.23;15.23;;;;;;;;;;5027588;28;20124;-59
2023/01/15 00:37:44;;;;;;;13.82;13.02;;;;;;;;;;5024283;28;20045;-59
2023/01/15 00:40:11;;;;;;;14.90;14.05;;;;;;;;;;5025036;28;20061;-59
2023/01/15 00:42:36;;;;;;;14.13;13.32;;;;;;;;;;5024273;28;20045;-59
2023/01/15 00:45:09;;;;;;;13.98;13.18;;;;;;;;;;5026537;28;20029;-59
2023/01/15 00:47:38;;;;;;;14.57;13.77;;;;;;;;;;5025879;28;20037;-59
2023/01/15 00:50:06;;;;;;;14.70;13.90;;;;;;;;;;5025849;28;20310;-59
2023/01/15 00:52:32;;;;;;;13.70;12.90;;;;;;;;;;5025177;28;20172;-59
2023/01/15 00:54:57;;;;;;;16.70;15.75;;;;;;;;;;5024621;28;20058;-59
2023/01/15 00:57:23;;;;;;;16.15;15.20;;;;;;;;;;5026295;28;20037;-59
2023/01/15 00:59:48;;;;;;;13.55;12.75;;;;;;;;;;5025598;28;20038;-59
2023/01/15 01:02:14;;;;;;;14.50;13.63;;;;;;;;;;5025982;28;20095;-59
2023/01/15 01:04:39;;;;;;;13.60;12.70;;;;;;;;;;5024239;28;20056;-59
2023/01/15 01:07:04;;;;;;;14.35;13.55;;;;;;;;;;5026279;28;20187;-59
2023/01/15 01:09:30;;;;;;;15.75;14.85;;;;;;;;;;5026006;28;20030;-59
2023/01/15 01:11:55;;;;;;;13.93;13.13;;;;;;;;;;5025911;28;20349;-59
2023/01/15 01:14:21;;;;;;;14.10;13.30;;;;;;;;;;5025493;28;20467;-59
2023/01/15 01:16:46;;;;;;;15.20;14.27;;;;;;;;;;5024717;28;20039;-59
2023/01/15 01:19:15;;;;;;;15.25;14.40;;;;;;;;;;5025072;28;20034;-59
2023/01/15 01:21:42;;;;;;;15.13;14.30;;;;;;;;;;5023924;28;20041;-59
2023/01/15 01:24:11;;;;;;;14.23;13.40;;;;;;;;;;5025264;28;20041;-59
2023/01/15 01:26:36;;;;;;;14.18;13.38;;;;;;;;;;5023613;28;20037;-59
2023/01/15 01:29:02;;;;;;;14.02;13.23;;;;;;;;;;5024030;28;20091;-59
2023/01/15 01:31:28;;;;;;;14.63;13.82;;;;;;;;;;5025684;28;20120;-59
2023/01/15 01:33:56;;;;;;;14.70;13.90;;;;;;;;;;5025470;28;20124;-59
2023/01/15 01:36:32;;;;;;;16.05;15.15;;;;;;;;;;5025596;28;20515;-60
2023/01/15 01:38:58;;;;;;;15.95;15.05;;;;;;;;;;5024805;28;20605;-59
2023/01/15 01:41:24;;;;;;;14.88;14.07;;;;;;;;;;5025779;28;20027;-59
2023/01/15 01:43:54;;;;;;;14.57;13.77;;;;;;;;;;5024833;28;20052;-59
2023/01/15 01:46:20;;;;;;;14.57;13.77;;;;;;;;;;5025903;28;20419;-59
2023/01/15 01:48:47;;;;;;;15.10;14.20;;;;;;;;;;5022440;28;20184;-59
2023/01/15 01:51:13;;;;;;;16.52;15.63;;;;;;;;;;5025055;28;20037;-59
2023/01/15 01:53:39;;;;;;;14.13;13.32;;;;;;;;;;5023985;28;20047;-59
2023/01/15 01:56:07;;;;;;;14.45;13.65;;;;;;;;;;5025117;28;20261;-59
2023/01/15 01:58:34;;;;;;;14.93;14.10;;;;;;;;;;5024130;28;20114;-59
2023/01/15 02:01:00;;;;;;;13.82;13.02;;;;;;;;;;5024831;28;20029;-59
2023/01/15 02:03:31;;;;;;;14.13;13.30;;;;;;;;;;5025435;28;20104;-59
2023/01/15 02:06:00;;;;;;;14.25;13.45;;;;;;;;;;5024860;28;20025;-59
2023/01/15 02:08:25;;;;;;;13.82;13.02;;;;;;;;;;5040336;28;20393;-59
2023/01/15 02:10:53;;;;;;;13.73;12.93;;;;;;;;;;5024239;28;20053;-59
2023/01/15 02:13:31;;;;;;;13.27;12.48;;;;;;;;;;5023795;28;20241;-59
2023/01/15 02:16:04;;;;;;;12.32;11.63;;;;;;;;;;5023593;28;20038;-59
2023/01/15 02:18:40;;;;;;;13.50;12.70;;;;;;;;;;5024181;28;20041;-59
2023/01/15 02:21:39;;;;;;;12.75;11.95;;;;;;;;;;5024530;28;20034;-59
2023/01/15 02:24:09;;;;;;;11.40;10.70;;;;;;;;;;5025102;28;20079;-59
2023/01/15 02:27:01;;;;;;;13.57;12.77;;;;;;;;;;5023831;28;20032;-59
2023/01/15 02:29:34;;;;;;;13.38;12.57;;;;;;;;;;5024772;28;20029;-59
2023/01/15 02:32:06;;;;;;;11.95;11.25;;;;;;;;;;5025873;28;20037;-59
2023/01/15 02:34:35;;;;;;;12.20;11.50;;;;;;;;;;5029753;28;20175;-59
2023/01/15 02:37:12;;;;;;;12.38;11.68;;;;;;;;;;5029178;28;20091;-58
2023/01/15 02:39:40;;;;;;;13.10;12.18;;;;;;;;;;5028382;28;20039;-59
2023/01/15 02:42:09;;;;;;;11.90;11.20;;;;;;;;;;5028835;28;20037;-59
2023/01/15 02:44:39;;;;;;;12.70;12.00;;;;;;;;;;5028738;28;20034;-60
2023/01/15 02:47:06;;;;;;;12.52;11.82;;;;;;;;;;5027297;28;20036;-59
2023/01/15 02:49:32;;;;;;;11.82;11.13;;;;;;;;;;5028060;28;20069;-59
2023/01/15 02:52:06;;;;;;;12.57;11.88;;;;;;;;;;5027551;28;20041;-59
2023/01/15 02:54:40;;;;;;;11.43;10.73;;;;;;;;;;5028932;28;20479;-59
2023/01/15 02:57:08;;;;;;;10.88;10.23;;;;;;;;;;5028535;28;20055;-59
2023/01/15 02:59:38;;;;;;;10.63;10.02;;;;;;;;;;5025868;28;20842;-59
2023/01/15 03:02:10;;;;;;;11.45;10.75;;;;;;;;;;5028001;28;20407;-59
2023/01/15 03:04:50;;;;;;;10.25;9.65;;;;;;;;;;5027458;28;20379;-59
2023/01/15 03:07:35;;;;;;;10.57;9.97;;;;;;;;;;5027142;28;20061;-59
2023/01/15 03:10:01;;;;;;;10.00;9.40;;;;;;;;;;5026915;28;20051;-59
2023/01/15 03:13:03;;;;;;;10.77;10.15;;;;;;;;;;5026912;28;20071;-59
2023/01/15 03:18:49;;;;;;;10.00;9.40;;;;;;;;;;5026216;28;20258;-59
2023/01/15 03:21:20;;;;;;;10.07;9.47;;;;;;;;;;5027346;28;20041;-59
2023/01/15 03:23:50;;;;;;;10.52;9.93;;;;;;;;;;5027360;28;20034;-59
2023/01/15 03:26:15;;;;;;;10.17;9.57;;;;;;;;;;5027405;28;20068;-59
2023/01/15 03:28:42;;;;;;;10.77;10.07;;;;;;;;;;5026992;28;20835;-59
2023/01/15 03:31:08;;;;;;;10.52;9.93;;;;;;;;;;5027642;28;20352;-61
2023/01/15 03:33:33;;;;;;;10.50;9.90;;;;;;;;;;5028561;28;20044;-61
2023/01/15 03:36:00;;;;;;;10.10;9.50;;;;;;;;;;5027651;28;20029;-59
2023/01/15 03:38:34;;;;;;;10.07;9.48;;;;;;;;;;5028347;28;20044;-59
2023/01/15 03:41:26;;;;;;;9.73;9.13;;;;;;;;;;5026156;28;20033;-59
2023/01/15 03:44:13;;;;;;;;;;;;;;;;;;5033222;28;20179;-59
2023/01/15 03:47:01;;;;;;;9.73;9.13;;;;;;;;;;5026782;28;20271;-59
2023/01/15 03:50:01;;;;;;;9.98;9.38;;;;;;;;;;5025793;28;20052;-59
2023/01/15 03:52:36;;;;;;;10.18;9.57;;;;;;;;;;5026270;28;20073;-59
2023/01/15 03:55:13;;;;;;;10.00;9.40;;;;;;;;;;5025998;28;20037;-59
2023/01/15 03:57:49;;;;;;;9.70;9.10;;;;;;;;;;5026691;28;20099;-59
2023/01/15 04:00:32;;;;;;;10.02;9.43;;;;;;;;;;5025714;28;20444;-59
2023/01/15 04:03:00;;;;;;;10.48;9.88;;;;;;;;;;5026994;28;20055;-59
2023/01/15 04:05:27;;;;;;;10.10;9.50;;;;;;;;;;5026708;28;20065;-58
2023/01/15 04:07:54;;;;;;;9.88;9.27;;;;;;;;;;5026700;28;20037;-59
2023/01/15 04:10:20;;;;;;;9.60;9.00;;;;;;;;;;5026181;28;20112;-59
2023/01/15 04:12:46;;;;;;;9.00;8.40;;;;;;;;;;5023511;28;20137;-59
2023/01/15 04:15:12;;;;;;;9.90;9.30;;;;;;;;;;5027702;28;20080;-59
2023/01/15 04:17:38;;;;;;;10.50;9.55;;;;;;;;;;5026898;28;20546;-59
2023/01/15 04:20:06;;;;;;;9.52;8.93;;;;;;;;;;5025575;28;20038;-59
2023/01/15 04:22:31;;;;;;;10.15;9.55;;;;;;;;;;5026631;28;20033;-59
2023/01/15 04:24:56;;;;;;;10.05;9.45;;;;;;;;;;5025694;28;20375;-59
2023/01/15 04:27:22;;;;;;;9.57;8.98;;;;;;;;;;5025873;28;20060;-59
2023/01/15 04:29:48;;;;;;;10.15;9.55;;;;;;;;;;5025672;28;20116;-59
2023/01/15 04:32:14;;;;;;;9.63;9.02;;;;;;;;;;5025678;28;20116;-59
2023/01/15 04:34:39;;;;;;;10.02;9.43;;;;;;;;;;5026924;28;20034;-59
2023/01/15 04:37:05;;;;;;;11.70;11.00;;;;;;;;;;5026570;28;20029;-59
2023/01/15 04:39:30;;;;;;;9.98;9.38;;;;;;;;;;5027363;28;20025;-59
2023/01/15 04:44:39;;;;;;;10.60;10.00;;;;;;;;;;5026671;28;20044;-59
2023/01/15 04:47:05;;;;;;;11.50;10.80;;;;;;;;;;5025408;28;20026;-59
2023/01/15 04:49:31;;;;;;;9.90;9.30;;;;;;;;;;5026180;28;20037;-59
2023/01/15 04:51:56;;;;;;;10.38;9.77;;;;;;;;;;5024826;28;20348;-59
2023/01/15 04:54:22;;;;;;;9.95;9.35;;;;;;;;;;5026190;28;20030;-59
2023/01/15 04:56:51;;;;;;;10.40;9.80;;;;;;;;;;5025560;28;20547;-59
2023/01/15 04:59:20;;;;;;;11.30;10.55;;;;;;;;;;5025932;28;20037;-59
2023/01/15 05:01:46;;;;;;;9.43;8.82;;;;;;;;;;5024953;28;20475;-59
2023/01/15 05:04:11;;;;;;;10.00;9.40;;;;;;;;;;5026007;28;20051;-59
2023/01/15 05:06:36;;;;;;;11.63;10.93;;;;;;;;;;5025806;28;20033;-59
2023/01/15 05:09:02;;;;;;;10.65;10.05;;;;;;;;;;5025499;28;20541;-59
2023/01/15 05:11:28;;;;;;;9.77;9.18;;;;;;;;;;5025700;28;20474;-59
2023/01/15 05:13:54;;;;;;;10.95;10.27;;;;;;;;;;5025537;28;20041;-59
2023/01/15 05:16:24;;;;;;;10.63;10.00;;;;;;;;;;5026584;28;20496;-59
2023/01/15 05:18:51;;;;;;;10.40;9.80;;;;;;;;;;5025809;28;20055;-59
2023/01/15 05:21:22;;;;;;;10.48;9.68;;;;;;;;;;5025736;28;20331;-59
2023/01/15 05:23:50;;;;;;;10.98;10.18;;;;;;;;;;5024125;28;20052;-59
2023/01/15 05:26:16;;;;;;;9.70;9.10;;;;;;;;;;5025176;28;20425;-59
2023/01/15 05:28:41;;;;;;;9.70;9.10;;;;;;;;;;5026098;28;20038;-59
2023/01/15 05:31:16;;;;;;;9.65;9.05;;;;;;;;;;5023947;28;20582;-59
2023/01/15 05:33:42;;;;;;;9.93;9.32;;;;;;;;;;5024793;28;20146;-59
2023/01/15 05:36:11;;;;;;;9.73;9.13;;;;;;;;;;5025498;28;20046;-59
2023/01/15 05:38:37;;;;;;;10.30;9.70;;;;;;;;;;5025906;28;20046;-59
2023/01/15 05:41:47;;;;;;;9.20;8.60;;;;;;;;;;5023468;28;20041;-59
2023/01/15 05:43:54;;;;;;;10.03;9.43;;;;;;;;;;5024326;28;20048;-59
2023/01/15 05:46:20;;;;;;;9.18;8.57;;;;;;;;;;5025355;28;20048;-59
2023/01/15 05:48:45;;;;;;;9.45;8.85;;;;;;;;;;5024036;28;20041;-58
2023/01/15 05:51:10;;;;;;;9.50;8.90;;;;;;;;;;5024858;28;20379;-59
2023/01/15 05:53:36;;;;;;;10.45;9.75;;;;;;;;;;5026016;28;20659;-59
2023/01/15 05:56:02;;;;;;;10.15;9.20;;;;;;;;;;5024000;28;20120;-59
2023/01/15 05:58:27;;;;;;;9.90;9.30;;;;;;;;;;5025607;28;20113;-59
2023/01/15 06:00:53;;;;;;;9.40;8.80;;;;;;;;;;5023298;28;20443;-59
2023/01/15 06:03:21;;;;;;;9.30;8.70;;;;;;;;;;5023386;28;21594;-59
2023/01/15 06:05:50;;;;;;;9.55;8.95;;;;;;;;;;5022821;28;20064;-58
2023/01/15 06:08:17;;;;;;;10.10;9.50;;;;;;;;;;5024939;28;20033;-59
2023/01/15 06:10:44;;;;;;;9.32;8.73;;;;;;;;;;5023174;28;20065;-59
2023/01/15 06:13:09;;;;;;;9.77;9.18;;;;;;;;;;5024131;28;20034;-59
2023/01/15 06:15:34;;;;;;;10.30;9.70;;;;;;;;;;5022569;28;20060;-59
2023/01/15 06:18:00;;;;;;;9.80;9.20;;;;;;;;;;5021990;28;20115;-59
2023/01/15 06:20:25;;;;;;;11.18;10.48;;;;;;;;;;5024628;28;20068;-59
2023/01/15 06:22:50;;;;;;;9.57;8.98;;;;;;;;;;5023350;28;20029;-59
2023/01/15 06:25:16;;;;;;;9.10;8.50;;;;;;;;;;5022664;28;20840;-59
2023/01/15 06:27:43;;;;;;;9.65;9.05;;;;;;;;;;5024038;28;20033;-59
2023/01/15 06:30:10;;;;;;;9.98;9.38;;;;;;;;;;5023268;28;20086;-59
2023/01/15 06:32:35;;;;;;;9.77;9.18;;;;;;;;;;5023610;28;20479;-59
2023/01/15 06:35:00;;;;;;;9.60;9.00;;;;;;;;;;5024086;28;20037;-59
2023/01/15 06:37:26;;;;;;;10.10;9.50;;;;;;;;;;5024405;28;20033;-60
2023/01/15 06:39:51;;;;;;;11.77;10.80;;;;;;;;;;5022045;28;20033;-59
2023/01/15 06:47:46;;;;;;;10.18;9.57;;;;;;;;;;5025993;28;20106;-59
2023/01/15 06:50:12;;;;;;;9.50;8.90;;;;;;;;;;5023442;28;20868;-59
2023/01/15 06:52:38;;;;;;;9.23;8.63;;;;;;;;;;5023606;28;20041;-59
2023/01/15 06:55:03;;;;;;;9.43;8.82;;;;;;;;;;5024406;28;20033;-61
2023/01/15 06:57:29;;;;;;;10.57;9.88;;;;;;;;;;5023805;28;20122;-64
2023/01/15 06:59:54;;;;;;;9.20;8.60;;;;;;;;;;5023890;28;20052;-63
2023/01/15 07:02:20;;;;;;;9.63;9.02;;;;;;;;;;5024127;28;20033;-58
2023/01/15 07:04:46;;;;;;;10.18;9.57;;;;;;;;;;5024764;28;20041;-60
2023/01/15 07:07:13;;;;;;;10.38;9.77;;;;;;;;;;5024198;28;20056;-59
2023/01/15 07:09:39;;;;;;;9.85;9.25;;;;;;;;;;5024622;28;20048;-60
2023/01/15 07:12:04;;;;;;;10.07;9.48;;;;;;;;;;5022644;28;20145;-60
2023/01/15 07:14:30;;;;;;;9.25;8.65;;;;;;;;;;5024016;28;20661;-59
2023/01/15 07:16:58;;;;;;;9.95;9.35;;;;;;;;;;5025407;28;20029;-64
2023/01/15 07:19:23;;;;;;;9.63;9.02;;;;;;;;;;5026626;28;20035;-63
2023/01/15 07:21:49;;;;;;;9.75;9.15;;;;;;;;;;5028369;28;20108;-62
2023/01/15 07:24:15;;;;;;;9.93;9.32;;;;;;;;;;5027181;28;20463;-62
2023/01/15 07:26:41;;;;;;;9.73;9.13;;;;;;;;;;5026283;28;20041;-61
2023/01/15 07:29:07;;;;;;;9.88;9.27;;;;;;;;;;5027884;28;20037;-61
2023/01/15 07:31:32;;;;;;;9.40;8.80;;;;;;;;;;5026785;28;20045;-61
2023/01/15 07:33:58;;;;;;;10.23;9.63;;;;;;;;;;5027147;28;20457;-61
2023/01/15 07:36:24;;;;;;;9.90;9.30;;;;;;;;;;5027938;28;20435;-62
2023/01/15 07:38:49;;;;;;;11.25;10.55;;;;;;;;;;5027457;28;20072;-58
2023/01/15 07:49:45;;;;;;;9.95;9.35;;;;;;;;;;5027839;28;20033;-62
2023/01/15 07:52:18;;;;;;;10.00;9.40;;;;;;;;;;5026856;28;20025;-58
2023/01/15 07:54:45;;;;;;;9.85;9.25;;;;;;;;;;5026726;28;20056;-59
2023/01/15 07:57:12;;;;;;;9.45;8.85;;;;;;;;;;5027131;28;20548;-58
2023/01/15 07:59:38;;;;;;;10.35;9.65;;;;;;;;;;5024247;28;20052;-58
2023/01/15 08:02:04;;;;;;;9.73;9.13;;;;;;;;;;5025400;28;20036;-59
2023/01/15 08:04:29;;;;;;;10.63;10.02;;;;;;;;;;5028037;28;20045;-58
2023/01/15 08:06:55;;;;;;;9.80;9.20;;;;;;;;;;5027756;28;20360;-58
2023/01/15 08:09:20;;;;;;;9.73;9.13;;;;;;;;;;5027542;28;20076;-60
2023/01/15 08:17:13;;;;;;;9.90;9.30;;;;;;;;;;5026747;28;20037;-59
2023/01/15 08:19:38;;;;;;;9.40;8.80;;;;;;;;;;5027473;28;20047;-62
2023/01/15 08:22:03;;;;;;;10.98;10.30;;;;;;;;;;5025443;28;20099;-62
2023/01/15 08:24:29;;;;;;;10.18;9.57;;;;;;;;;;5026907;28;20048;-62
2023/01/15 08:26:54;;;;;;;10.23;9.63;;;;;;;;;;5026858;28;20041;-61
2023/01/15 08:29:20;;;;;;;10.00;9.40;;;;;;;;;;5026171;28;20061;-63
2023/01/15 08:31:46;;;;;;;9.85;9.25;;;;;;;;;;5025498;28;20052;-62
2023/01/15 08:34:12;;;;;;;9.60;9.00;;;;;;;;;;5026763;28;20608;-62
2023/01/15 08:36:37;;;;;;;9.45;8.85;;;;;;;;;;5027043;28;20454;-58
2023/01/15 08:39:03;;;;;;;9.50;8.90;;;;;;;;;;5024952;28;20037;-62
2023/01/15 08:41:29;;;;;;;10.35;9.75;;;;;;;;;;5026262;28;20038;-62
2023/01/15 08:43:54;;;;;;;9.77;9.18;;;;;;;;;;5027383;28;20037;-63
2023/01/15 08:46:20;;;;;;;9.40;8.80;;;;;;;;;;5026191;28;20076;-58
2023/01/15 08:48:45;;;;;;;9.90;9.30;;;;;;;;;;5026991;28;20103;-62
2023/01/15 08:51:11;;;;;;;10.32;9.73;;;;;;;;;;5024492;28;20460;-58
2023/01/15 08:53:37;;;;;;;9.18;8.57;;;;;;;;;;5023636;28;20856;-61
2023/01/15 08:56:03;;;;;;;9.80;9.20;;;;;;;;;;5024764;28;20481;-61
2023/01/15 08:58:30;;;;;;;9.40;8.80;;;;;;;;;;5025863;28;20112;-58
2023/01/15 09:01:03;;;;;;;9.80;9.20;;;;;;;;;;5023888;28;20037;-57
2023/01/15 09:03:28;;;;;;;10.65;10.05;;;;;;;;;;5026306;28;20538;-59
2023/01/15 09:05:57;;;;;;;9.95;9.35;;;;;;;;;;5026315;28;20037;-60
2023/01/15 09:08:22;;;;;;;10.18;9.57;;;;;;;;;;5025872;28;20029;-57
2023/01/15 09:10:48;;;;;;;10.38;9.77;;;;;;;;;;5026023;28;20029;-58
2023/01/15 09:13:13;;;;;;;11.07;10.38;;;;;;;;;;5021880;28;20107;-57
2023/01/15 09:15:38;;;;;;;9.90;9.20;;;;;;;;;;5026117;28;20037;-57
2023/01/15 09:18:04;;;;;;;10.32;9.73;;;;;;;;;;5025108;28;20044;-57
2023/01/15 09:20:29;;;;;;;9.50;8.90;;;;;;;;;;5025688;28;20646;-57
2023/01/15 09:22:55;;;;;;;10.30;9.70;;;;;;;;;;5025795;28;20467;-60
2023/01/15 09:25:22;;;;;;;9.38;8.77;;;;;;;;;;5024717;28;20072;-57
2023/01/15 09:27:48;;;;;;;9.85;9.25;;;;;;;;;;5023908;28;20451;-57
2023/01/15 09:30:19;;;;;;;9.88;9.27;;;;;;;;;;5022899;28;20163;-57
2023/01/15 09:32:45;;;;;;;9.27;8.68;;;;;;;;;;5025881;28;20645;-57
2023/01/15 09:35:11;;;;;;;9.43;8.82;;;;;;;;;;5024460;28;20474;-60
2023/01/15 09:37:36;;;;;;;9.45;8.85;;;;;;;;;;5025511;28;20040;-60
2023/01/15 09:40:03;;;;;;;9.45;8.85;;;;;;;;;;5024696;28;20037;-59
2023/01/15 09:42:43;;;;;;;9.50;8.90;;;;;;;;;;5023367;28;20038;-60
2023/01/15 09:45:29;;;;;;;9.70;9.10;;;;;;;;;;5024625;28;20072;-60
2023/01/15 09:48:10;;;;;;;9.90;9.30;;;;;;;;;;5025822;28;20037;-61
2023/01/15 09:50:51;;;;;;;;;;;;;;;;;;5024233;28;20447;-62
2023/01/15 09:53:31;;;;;;;9.93;9.32;;;;;;;;;;5023072;28;19925;-61
2023/01/15 09:55:58;;;;;;;9.87;9.27;;;;;;;;;;5024429;28;20083;-61
2023/01/15 09:58:37;;;;;;;10.45;9.85;;;;;;;;;;5021508;28;20370;-61
2023/01/15 10:01:03;;;;;;;9.70;9.10;;;;;;;;;;5022867;28;20463;-61
2023/01/15 10:03:51;;;;;;;10.30;9.70;;;;;;;;;;5025117;28;20054;-61
2023/01/15 10:06:23;;;;;;;9.65;9.05;;;;;;;;;;5024322;28;20044;-61
2023/01/15 10:08:50;;;;;;;9.93;9.32;;;;;;;;;;5023427;28;20056;-61
2023/01/15 10:11:16;;;;;;;10.20;9.60;;;;;;;;;;5022296;28;20039;-61
2023/01/15 10:13:47;;;;;;;9.52;8.93;;;;;;;;;;5025101;28;20403;-61
2023/01/15 10:16:21;;;;;;;9.57;8.98;;;;;;;;;;5024216;28;20034;-62
2023/01/15 10:18:46;;;;;;;9.40;8.80;;;;;;;;;;5023302;28;20182;-62
2023/01/15 10:21:33;;;;;;;10.80;10.15;;;;;;;;;;5021894;28;20067;-62
2023/01/15 10:24:01;;;;;;;9.85;9.25;;;;;;;;;;5018135;28;20029;-61
2023/01/15 10:26:43;;;;;;;9.57;8.98;;;;;;;;;;5022809;28;20328;-61
2023/01/15 10:29:14;;;;;;;10.48;9.77;;;;;;;;;;5022877;28;20037;-61
2023/01/15 10:31:53;;;;;;;9.80;9.10;;;;;;;;;;5023780;28;20035;-60
2023/01/15 10:34:42;;;;;;;9.07;8.48;;;;;;;;;;5023692;28;20047;-60
2023/01/15 10:37:26;;;;;;;9.27;8.68;;;;;;;;;;5023998;28;20037;-61
2023/01/15 10:40:13;;;;;;;9.18;8.57;;;;;;;;;;5023230;28;20080;-59
2023/01/15 10:42:47;;;;;;;9.95;9.35;;;;;;;;;;5023936;28;20049;-59
2023/01/15 10:45:25;;;;;;;10.13;9.52;;;;;;;;;;5023390;28;20116;-59
2023/01/15 10:48:12;;;;;;;9.40;8.80;;;;;;;;;;5022002;28;20371;-59
2023/01/15 10:50:38;;;;;;;9.40;8.80;;;;;;;;;;5023214;28;20128;-59
2023/01/15 10:53:13;;;;;;;9.95;9.35;;;;;;;;;;5026474;28;20120;-60
2023/01/15 10:55:47;;;;;;;9.50;8.90;;;;;;;;;;5028412;28;20080;-60
2023/01/15 10:58:15;;;;;;;9.80;9.10;;;;;;;;;;5027508;28;20037;-60
2023/01/15 11:00:48;;;;;;;9.63;9.02;;;;;;;;;;5026431;28;20044;-59
2023/01/15 11:03:20;;;;;;;9.23;8.63;;;;;;;;;;5027284;28;20037;-60
2023/01/15 11:05:46;;;;;;;9.85;9.25;;;;;;;;;;5035770;28;20029;-58
2023/01/15 11:08:29;;;;;;;9.23;8.63;;;;;;;;;;5024281;28;20505;-58
2023/01/15 11:10:57;;;;;;;9.52;8.93;;;;;;;;;;5026516;28;20619;-58
2023/01/15 11:19:44;;;;;;;9.70;9.10;;;;;;;;;;5026713;28;20061;-59
2023/01/15 11:22:13;;;;;;;9.70;9.10;;;;;;;;;;5016828;28;20457;-58
2023/01/15 11:24:59;;;;;;;9.30;8.70;;;;;;;;;;5036752;28;20033;-57
2023/01/15 11:27:29;;;;;;;9.10;8.50;;;;;;;;;;5027005;28;20107;-57
2023/01/15 11:30:00;;;;;;;9.30;8.70;;;;;;;;;;5027221;28;20379;-59
2023/01/15 11:32:32;;;;;;;9.65;9.05;;;;;;;;;;5025003;28;20089;-59
2023/01/15 11:35:07;;;;;;;9.10;8.50;;;;;;;;;;5027517;28;20463;-59
2023/01/15 11:37:33;;;;;;;9.60;9.00;;;;;;;;;;5025272;28;20033;-58
2023/01/15 11:40:08;;;;;;;9.30;8.70;;;;;;;;;;5028141;28;20052;-58
2023/01/15 11:51:20;;;;;;;9.30;8.70;;;;;;;;;;5027084;28;20051;-58
2023/01/15 11:53:52;;;;;;;9.77;9.18;;;;;;;;;;5027903;28;20048;-59
2023/01/15 11:56:19;;;;;;;;;;;;;;;;;;5027803;28;20713;-58
2023/01/15 11:58:48;;;;;;;9.30;8.70;;;;;;;;;;5024935;28;19987;-58
2023/01/15 12:01:31;;;;;;;9.80;9.20;;;;;;;;;;5023719;28;20223;-58
2023/01/15 12:04:17;;;;;;;9.10;8.50;;;;;;;;;;5036092;28;20025;-58
2023/01/15 12:06:43;;;;;;;10.10;9.50;;;;;;;;;;5027124;28;20124;-59
2023/01/15 12:09:35;;;;;;;9.35;8.75;;;;;;;;;;5027701;28;20116;-59
2023/01/15 12:12:40;;;;;;;12.65;11.25;;;;;;;;;;5025110;28;20029;-60
2023/01/15 12:15:43;;;;;;;9.32;8.73;;;;;;;;;;4988570;28;20205;-58
2023/01/15 12:18:30;;;;;;;10.02;9.43;;;;;;;;;;5025001;28;20033;-60
2023/01/15 12:21:04;;;;;;;9.35;8.75;;;;;;;;;;5026130;28;20580;-62
2023/01/15 12:23:55;;;;;;;9.32;8.73;;;;;;;;;;5025413;28;20318;-60
2023/01/15 12:26:30;;;;;;;9.38;8.77;;;;;;;;;;5025641;28;20363;-59
2023/01/15 12:29:11;;;;;;;10.13;9.52;;;;;;;;;;5026188;28;20041;-59
2023/01/15 12:31:42;;;;;;;9.90;9.30;;;;;;;;;;5025731;28;20025;-60
2023/01/15 12:34:19;;;;;;;10.55;9.95;;;;;;;;;;5025056;28;20280;-60
2023/01/15 12:36:58;;;;;;;9.23;8.63;;;;;;;;;;5026389;28;20033;-60
2023/01/15 12:39:30;;;;;;;9.73;9.13;;;;;;;;;;5025905;28;20040;-59
2023/01/15 12:45:11;;;;;;;11.23;10.52;;;;;;;;;;5010881;28;20154;-59
2023/01/15 12:47:50;;;;;;;9.57;8.98;;;;;;;;;;5025546;28;20112;-60
2023/01/15 12:50:24;;;;;;;11.90;11.20;;;;;;;;;;5025044;28;20498;-60
2023/01/15 12:53:17;;;;;;;11.48;10.77;;;;;;;;;;5027214;28;20045;-59
2023/01/15 12:56:08;;;;;;;11.98;11.27;;;;;;;;;;5022141;28;20459;-60
2023/01/15 12:58:52;;;;;;;11.50;10.80;;;;;;;;;;5024665;28;20467;-60
2023/01/15 13:01:55;;;;;;;10.32;9.73;;;;;;;;;;5024549;28;20040;-60
2023/01/15 13:04:29;;;;;;;10.32;9.73;;;;;;;;;;5002080;28;20073;-59
2023/01/15 13:07:11;;;;;;;11.02;10.32;;;;;;;;;;5003551;28;20178;-61
2023/01/15 13:10:06;;;;;;;11.50;10.68;;;;;;;;;;5001541;28;20041;-60
2023/01/15 13:12:32;;;;;;;11.38;10.68;;;;;;;;;;5024144;28;20037;-60
2023/01/15 13:14:58;;;;;;;12.77;12.07;;;;;;;;;;5026193;28;20037;-58
2023/01/15 13:17:49;;;;;;;11.05;10.38;;;;;;;;;;5023588;28;20105;-58
2023/01/15 13:20:37;;;;;;;10.88;10.25;;;;;;;;;;5025385;28;20041;-59
2023/01/15 13:23:08;;;;;;;12.93;12.15;;;;;;;;;;5026312;28;20037;-58
2023/01/15 13:26:13;;;;;;;11.25;10.55;;;;;;;;;;5025173;28;20116;-58
2023/01/15 13:28:57;;;;;;;11.10;10.40;;;;;;;;;;5023757;28;20060;-58
2023/01/15 13:31:45;;;;;;;12.05;11.35;;;;;;;;;;5022192;28;20302;-58
2023/01/15 13:34:22;;;;;;;12.82;12.00;;;;;;;;;;5024316;28;20374;-58
2023/01/15 13:36:49;;;;;;;11.13;10.43;;;;;;;;;;5024096;28;20129;-58
2023/01/15 13:39:19;;;;;;;13.20;12.40;;;;;;;;;;5025395;28;20033;-58
2023/01/15 13:44:44;;;;;;;11.40;10.70;;;;;;;;;;5023426;28;20034;-57
2023/01/15 13:47:16;;;;;;;12.23;11.52;;;;;;;;;;5025077;28;20057;-58
2023/01/15 13:49:48;;;;;;;12.52;11.82;;;;;;;;;;5024862;28;20078;-58
2023/01/15 13:52:25;;;;;;;11.45;10.75;;;;;;;;;;5024832;28;20485;-58
2023/01/15 13:54:51;;;;;;;12.52;11.82;;;;;;;;;;5025482;28;20416;-57
2023/01/15 13:57:33;;;;;;;11.25;10.57;;;;;;;;;;5024168;28;20071;-57
2023/01/15 13:59:58;;;;;;;11.73;11.02;;;;;;;;;;5024033;28;20040;-57
2023/01/15 14:02:26;;;;;;;13.05;12.25;;;;;;;;;;5023257;28;20029;-57
2023/01/15 14:04:52;;;;;;;11.63;10.93;;;;;;;;;;5024423;28;20029;-58
2023/01/15 14:07:30;;;;;;;20.35;12.23;;;;;;;;;;5025725;28;20044;-57
2023/01/15 14:10:07;;;;;;;13.00;12.23;;;;;;;;;;5024720;28;20044;-58
2023/01/15 14:12:54;;;;;;;12.20;11.50;;;;;;;;;;5021060;28;20041;-58
2023/01/15 14:15:32;;;;;;;12.38;11.68;;;;;;;;;;5024272;28;20025;-58
2023/01/15 14:18:13;;;;;;;13.98;13.07;;;;;;;;;;5023529;28;20029;-58
2023/01/15 14:21:12;;;;;;;13.57;12.77;;;;;;;;;;5023310;28;21976;-58
2023/01/15 14:23:52;;;;;;;11.45;10.75;;;;;;;;;;5024239;28;20569;-58
2023/01/15 14:26:53;;;;;;;13.55;12.75;;;;;;;;;;5024228;28;20037;-58
2023/01/15 14:29:52;;;;;;;13.68;12.88;;;;;;;;;;5018566;28;20133;-59
2023/01/15 14:32:33;;;;;;;12.48;11.68;;;;;;;;;;5024507;28;20612;-58
2023/01/15 14:35:00;;;;;;;12.75;12.05;;;;;;;;;;5023529;28;20122;-59
2023/01/15 14:37:48;;;;;;;12.80;11.70;;;;;;;;;;5022897;28;20163;-59
2023/01/15 14:40:27;;;;;;;13.20;12.40;;;;;;;;;;5022466;28;20047;-59
2023/01/15 14:43:01;;;;;;;11.65;10.95;;;;;;;;;;5020724;28;20030;-58
2023/01/15 14:45:37;;;;;;;12.30;11.60;;;;;;;;;;5023462;28;20044;-58
2023/01/15 14:48:05;;;;;;;13.52;12.73;;;;;;;;;;5025463;28;20096;-58
2023/01/15 14:50:37;;;;;;;12.43;11.73;;;;;;;;;;5022085;28;20107;-58
2023/01/15 14:53:22;;;;;;;12.15;11.45;;;;;;;;;;5024025;28;20037;-58
2023/01/15 14:55:54;;;;;;;11.80;11.07;;;;;;;;;;5023639;28;20038;-58
2023/01/15 14:58:30;;;;;;;11.57;10.88;;;;;;;;;;5024193;28;20392;-58
2023/01/15 15:01:10;;;;;;;12.15;11.35;;;;;;;;;;5024362;28;20069;-58
2023/01/15 15:03:40;;;;;;;12.55;11.85;;;;;;;;;;5023452;28;20052;-58
2023/01/15 15:06:09;;;;;;;12.35;11.65;;;;;;;;;;5024081;28;20132;-58
2023/01/15 15:08:35;;;;;;;14.10;13.02;;;;;;;;;;5022408;28;20136;-58
2023/01/15 15:12:17;;;;;;;12.05;11.35;;;;;;;;;;5018142;28;20612;-59
2023/01/15 15:13:50;;;;;;;12.50;11.80;;;;;;;;;;5023328;28;20033;-58
2023/01/15 15:16:24;;;;;;;12.00;11.27;;;;;;;;;;5025563;28;20034;-59
2023/01/15 15:19:00;;;;;;;11.60;10.90;;;;;;;;;;5017940;28;20030;-59
2023/01/15 15:21:30;;;;;;;11.60;10.57;;;;;;;;;;5026390;28;20071;-58
2023/01/15 15:24:14;;;;;;;10.82;10.20;;;;;;;;;;5028030;28;20057;-58
2023/01/15 15:26:39;;;;;;;12.73;11.93;;;;;;;;;;5026560;28;20053;-58
2023/01/15 15:29:08;;;;;;;11.40;10.70;;;;;;;;;;5027660;28;20048;-58
2023/01/15 15:31:36;;;;;;;12.00;11.30;;;;;;;;;;5026701;28;20349;-58
2023/01/15 15:34:04;;;;;;;12.38;11.57;;;;;;;;;;5026285;28;21492;-58
2023/01/15 15:36:34;;;;;;;11.25;10.10;;;;;;;;;;5027595;28;20041;-58
2023/01/15 15:39:15;;;;;;;12.13;11.43;;;;;;;;;;5026038;28;20044;-58
2023/01/15 15:50:33;;;;;;;12.38;11.68;;;;;;;;;;5026975;28;20036;-58
2023/01/15 15:53:05;;;;;;;13.52;12.73;;;;;;;;;;5026595;28;20408;-58